sensor_id;sensor_type;location;lat;lon;timestamp;pressure;altitude;pressure_sealevel;temperature;humidity
63287;BME280;49410;55.708;37.522;2023-03-26T01:30:29;98084.63;;;7.23;nan
63287;BME280;49410;55.708;37.522;2023-03-26T17:56:04;97682.44;;;7.50;nan
63287;BME280;49410;55.708;37.522;2023-03-26T20:05:28;97508.50;;;6.93;nan
63287;BME280;49410;55.708;37.522;2023-03-26T20:07:56;97516.16;;;6.76;nan
63287;BME280;49410;55.708;37.522;2023-03-26T20:10:24;97518.22;;;6.74;nan
63287;BME280;49410;55.708;37.522;2023-03-26T20:12:50;97521.59;;;6.48;nan
63287;BME280;49410;55.708;37.522;2023-03-26T20:15:26;97502.38;;;6.49;nan
63287;BME280;49410;55.708;37.522;2023-03-26T20:17:53;97505.34;;;6.55;nan
63287;BME280;49410;55.708;37.522;2023-03-26T20:20:24;97514.69;;;6.52;nan
63287;BME280;49410;55.708;37.522;2023-03-26T20:22:52;97506.53;;;6.45;nan
63287;BME280;49410;55.708;37.522;2023-03-26T20:25:22;97486.13;;;6.06;nan
63287;BME280;49410;55.708;37.522;2023-03-26T20:27:48;97508.56;;;6.15;nan
63287;BME280;49410;55.708;37.522;2023-03-26T20:30:14;97521.88;;;6.10;nan
63287;BME280;49410;55.708;37.522;2023-03-26T20:32:40;97519.66;;;5.98;nan
63287;BME280;49410;55.708;37.522;2023-03-26T20:35:24;97527.03;;;6.04;nan
63287;BME280;49410;55.708;37.522;2023-03-26T20:37:50;97533.41;;;5.97;nan
63287;BME280;49410;55.708;37.522;2023-03-26T20:40:16;97520.28;;;5.79;nan
63287;BME280;49410;55.708;37.522;2023-03-26T20:42:43;97521.38;;;5.63;nan
63287;BME280;49410;55.708;37.522;2023-03-26T20:45:21;97525.94;;;5.62;nan
63287;BME280;49410;55.708;37.522;2023-03-26T20:47:47;97543.22;;;5.61;nan
63287;BME280;49410;55.708;37.522;2023-03-26T20:50:15;97533.25;;;5.62;nan
63287;BME280;49410;55.708;37.522;2023-03-26T20:52:41;97524.00;;;5.56;nan
63287;BME280;49410;55.708;37.522;2023-03-26T20:55:16;97536.13;;;5.60;nan
63287;BME280;49410;55.708;37.522;2023-03-26T20:57:42;97548.09;;;5.66;nan
63287;BME280;49410;55.708;37.522;2023-03-26T21:00:12;97540.97;;;5.65;nan
63287;BME280;49410;55.708;37.522;2023-03-26T21:02:50;97531.66;;;5.67;nan
63287;BME280;49410;55.708;37.522;2023-03-26T21:05:17;97534.72;;;5.64;nan
63287;BME280;49410;55.708;37.522;2023-03-26T21:07:58;97538.03;;;5.44;nan
63287;BME280;49410;55.708;37.522;2023-03-26T21:10:26;97547.88;;;5.46;nan
63287;BME280;49410;55.708;37.522;2023-03-26T21:13:24;97532.00;;;5.27;nan
63287;BME280;49410;55.708;37.522;2023-03-26T21:15:56;97557.50;;;5.33;nan
63287;BME280;49410;55.708;37.522;2023-03-26T21:18:22;97540.88;;;5.21;nan
63287;BME280;49410;55.708;37.522;2023-03-26T21:20:58;97550.41;;;5.17;nan
63287;BME280;49410;55.708;37.522;2023-03-26T21:23:43;97544.16;;;5.17;nan
63287;BME280;49410;55.708;37.522;2023-03-26T21:26:19;97558.25;;;5.27;nan
63287;BME280;49410;55.708;37.522;2023-03-26T21:28:50;97543.50;;;5.15;nan
63287;BME280;49410;55.708;37.522;2023-03-26T21:31:19;97553.97;;;5.18;nan
63287;BME280;49410;55.708;37.522;2023-03-26T21:33:46;97544.72;;;4.97;nan
63287;BME280;49410;55.708;37.522;2023-03-26T21:36:14;97561.91;;;5.19;nan
63287;BME280;49410;55.708;37.522;2023-03-26T21:38:41;97525.84;;;5.04;nan
63287;BME280;49410;55.708;37.522;2023-03-26T21:41:48;97566.50;;;5.34;nan
63287;BME280;49410;55.708;37.522;2023-03-26T21:44:15;97556.00;;;5.31;nan
63287;BME280;49410;55.708;37.522;2023-03-26T21:46:43;97553.75;;;5.34;nan
63287;BME280;49410;55.708;37.522;2023-03-26T21:49:11;97570.22;;;5.48;nan
63287;BME280;49410;55.708;37.522;2023-03-26T21:51:37;97572.47;;;5.44;nan
63287;BME280;49410;55.708;37.522;2023-03-26T21:54:10;97573.53;;;5.50;nan
63287;BME280;49410;55.708;37.522;2023-03-26T21:56:51;97589.44;;;5.53;nan
63287;BME280;49410;55.708;37.522;2023-03-26T22:07:18;97584.34;;;5.13;nan
63287;BME280;49410;55.708;37.522;2023-03-26T22:09:45;97588.63;;;5.22;nan
63287;BME280;49410;55.708;37.522;2023-03-26T22:12:11;97587.13;;;5.20;nan
63287;BME280;49410;55.708;37.522;2023-03-26T22:14:37;97593.88;;;5.24;nan
63287;BME280;49410;55.708;37.522;2023-03-26T22:17:03;97586.66;;;5.16;nan
63287;BME280;49410;55.708;37.522;2023-03-26T22:19:29;97573.09;;;5.01;nan
63287;BME280;49410;55.708;37.522;2023-03-26T22:21:55;97601.53;;;5.20;nan
63287;BME280;49410;55.708;37.522;2023-03-26T22:24:22;97585.06;;;5.22;nan
63287;BME280;49410;55.708;37.522;2023-03-26T22:26:47;97590.88;;;5.19;nan
63287;BME280;49410;55.708;37.522;2023-03-26T22:29:13;97586.09;;;5.21;nan
63287;BME280;49410;55.708;37.522;2023-03-26T22:31:40;97577.69;;;5.16;nan
63287;BME280;49410;55.708;37.522;2023-03-26T22:34:07;97583.31;;;5.29;nan
63287;BME280;49410;55.708;37.522;2023-03-26T22:36:32;97582.38;;;5.22;nan
63287;BME280;49410;55.708;37.522;2023-03-26T22:38:59;97582.75;;;5.34;nan
63287;BME280;49410;55.708;37.522;2023-03-26T22:41:25;97586.28;;;5.34;nan
63287;BME280;49410;55.708;37.522;2023-03-26T22:43:53;97601.78;;;5.40;nan
63287;BME280;49410;55.708;37.522;2023-03-26T22:46:20;97590.56;;;5.43;nan
63287;BME280;49410;55.708;37.522;2023-03-26T22:48:46;97611.69;;;5.48;nan
63287;BME280;49410;55.708;37.522;2023-03-26T22:51:16;97614.41;;;5.48;nan
63287;BME280;49410;55.708;37.522;2023-03-26T22:53:42;97587.41;;;5.25;nan
63287;BME280;49410;55.708;37.522;2023-03-26T22:56:09;97591.91;;;5.33;nan
63287;BME280;49410;55.708;37.522;2023-03-26T22:58:35;97601.34;;;5.22;nan
63287;BME280;49410;55.708;37.522;2023-03-26T23:01:07;97603.00;;;5.23;nan
63287;BME280;49410;55.708;37.522;2023-03-26T23:03:33;97584.91;;;5.08;nan
63287;BME280;49410;55.708;37.522;2023-03-26T23:06:01;97604.97;;;5.14;nan
63287;BME280;49410;55.708;37.522;2023-03-26T23:08:29;97607.97;;;5.19;nan
63287;BME280;49410;55.708;37.522;2023-03-26T23:10:54;97592.38;;;5.21;nan
63287;BME280;49410;55.708;37.522;2023-03-26T23:13:20;97605.06;;;5.21;nan
63287;BME280;49410;55.708;37.522;2023-03-26T23:15:48;97602.56;;;5.19;nan
63287;BME280;49410;55.708;37.522;2023-03-26T23:18:15;97595.09;;;5.21;nan
63287;BME280;49410;55.708;37.522;2023-03-26T23:20:47;97602.66;;;5.26;nan
63287;BME280;49410;55.708;37.522;2023-03-26T23:23:12;97593.75;;;5.17;nan
63287;BME280;49410;55.708;37.522;2023-03-26T23:25:38;97608.72;;;5.28;nan
63287;BME280;49410;55.708;37.522;2023-03-26T23:28:04;97594.63;;;5.33;nan
63287;BME280;49410;55.708;37.522;2023-03-26T23:30:30;97600.84;;;5.48;nan
63287;BME280;49410;55.708;37.522;2023-03-26T23:32:56;97589.47;;;5.38;nan
63287;BME280;49410;55.708;37.522;2023-03-26T23:35:22;97602.75;;;5.48;nan
63287;BME280;49410;55.708;37.522;2023-03-26T23:37:47;97601.44;;;5.43;nan
63287;BME280;49410;55.708;37.522;2023-03-26T23:40:15;97593.59;;;5.49;nan
63287;BME280;49410;55.708;37.522;2023-03-26T23:42:40;97597.69;;;5.44;nan
63287;BME280;49410;55.708;37.522;2023-03-26T23:45:07;97599.75;;;5.42;nan
63287;BME280;49410;55.708;37.522;2023-03-26T23:47:32;97593.28;;;5.43;nan
63287;BME280;49410;55.708;37.522;2023-03-26T23:50:03;97597.34;;;5.33;nan
63287;BME280;49410;55.708;37.522;2023-03-26T23:52:29;97590.69;;;5.35;nan
63287;BME280;49410;55.708;37.522;2023-03-26T23:54:56;97603.31;;;5.28;nan
63287;BME280;49410;55.708;37.522;2023-03-26T23:57:24;97601.88;;;5.32;nan
63287;BME280;49410;55.708;37.522;2023-03-26T23:59:50;97575.81;;;5.16;nan
